createdAt,value
2023-01-20T00:01:43.028Z,1.56
2023-01-20T00:05:41.159Z,1.55
2023-01-20T00:09:40.060Z,1.55
2023-01-20T00:13:40.120Z,1.56
2023-01-20T00:17:37.978Z,1.56
2023-01-20T00:21:36.044Z,1.56
2023-01-20T00:25:34.982Z,1.56
2023-01-20T00:29:33.026Z,1.57
2023-01-20T00:33:31.004Z,1.59
2023-01-20T00:37:29.092Z,1.58
2023-01-20T00:41:27.069Z,1.57
2023-01-20T00:45:24.980Z,1.55
2023-01-20T00:49:24.929Z,1.54
2023-01-20T00:53:23.052Z,1.55
2023-01-20T00:57:20.932Z,1.54
2023-01-20T01:01:19.081Z,1.56
2023-01-20T01:05:16.942Z,1.55
2023-01-20T01:09:14.965Z,1.56
2023-01-20T01:13:17.963Z,1.57
2023-01-20T01:17:15.941Z,1.57
2023-01-20T01:21:14.203Z,1.55
2023-01-20T01:25:12.064Z,1.52
2023-01-20T01:29:09.930Z,1.51
2023-01-20T01:33:07.890Z,1.51
2023-01-20T01:37:06.919Z,1.51
2023-01-20T01:41:05.869Z,1.54
2023-01-20T01:45:24.896Z,1.57
2023-01-20T01:49:40.899Z,1.59
2023-01-20T01:53:41.888Z,1.61
2023-01-20T01:57:39.966Z,1.62
2023-01-20T02:01:37.962Z,1.61
2023-01-20T02:05:39.948Z,1.59
2023-01-20T02:09:39.846Z,1.56
2023-01-20T02:13:39.101Z,1.55
2023-01-20T02:17:50.820Z,1.54
2023-01-20T02:21:53.839Z,1.56
2023-01-20T02:26:28.823Z,1.56
2023-01-20T02:30:50.881Z,1.56
2023-01-20T02:35:00.836Z,1.57
2023-01-20T02:39:10.794Z,1.58
2023-01-20T02:43:26.798Z,1.58
2023-01-20T02:47:33.811Z,1.58
2023-01-20T02:51:40.844Z,1.54
2023-01-20T02:55:56.837Z,1.52
2023-01-20T02:59:57.772Z,1.50
2023-01-20T03:04:00.837Z,1.45
2023-01-20T03:08:00.764Z,1.42
2023-01-20T03:12:07.822Z,1.37
2023-01-20T03:16:13.912Z,1.39
2023-01-20T03:20:11.766Z,1.37
2023-01-20T03:24:15.768Z,1.32
2023-01-20T03:28:13.844Z,1.19
2023-01-20T03:32:16.719Z,1.11
2023-01-20T03:36:14.818Z,1.06
2023-01-20T03:40:12.800Z,1.03
2023-01-20T03:44:21.735Z,1.01
2023-01-20T03:48:31.693Z,0.97
2023-01-20T03:52:49.773Z,0.92
2023-01-20T03:56:54.689Z,0.86
2023-01-20T04:00:56.717Z,0.81
2023-01-20T04:04:57.710Z,0.81
2023-01-20T04:09:09.704Z,0.85
2023-01-20T04:13:07.692Z,0.83
2023-01-20T04:17:11.824Z,0.81
2023-01-20T04:21:17.635Z,0.83
2023-01-20T04:25:28.678Z,0.86
2023-01-20T04:29:26.649Z,0.93
2023-01-20T04:33:24.639Z,0.99
2023-01-20T04:37:22.608Z,1.09
2023-01-20T04:41:20.783Z,1.19
2023-01-20T04:45:20.710Z,1.27
2023-01-20T04:49:18.606Z,1.35
2023-01-20T04:53:16.666Z,1.38
2023-01-20T04:57:14.646Z,1.41
2023-01-20T05:01:16.643Z,1.47
2023-01-20T05:05:14.917Z,1.52
2023-01-20T05:09:12.573Z,1.57
2023-01-20T05:13:10.615Z,1.61
2023-01-20T05:17:08.596Z,1.64
2023-01-20T05:21:06.718Z,1.68
2023-01-20T05:25:04.600Z,1.73
2023-01-20T05:29:02.583Z,1.75
2023-01-20T05:33:00.561Z,1.77
2023-01-20T05:36:58.588Z,1.78
2023-01-20T05:40:56.608Z,1.80
2023-01-20T05:44:54.544Z,1.83
2023-01-20T05:48:52.548Z,1.85
2023-01-20T05:52:50.649Z,1.87
2023-01-20T05:56:48.625Z,1.87
2023-01-20T06:00:46.515Z,1.87
2023-01-20T06:04:37.598Z,1.88
2023-01-20T06:08:35.492Z,1.90
2023-01-20T06:12:33.576Z,1.92
2023-01-20T06:16:32.562Z,1.91
2023-01-20T06:20:30.462Z,1.90
2023-01-20T06:24:28.543Z,1.89
2023-01-20T06:28:26.492Z,1.79
2023-01-20T06:32:25.495Z,1.70
2023-01-20T06:36:24.478Z,1.55
2023-01-20T06:40:22.449Z,1.45
2023-01-20T06:44:20.436Z,1.36
2023-01-20T06:48:18.475Z,1.33
2023-01-20T06:52:16.416Z,1.34
2023-01-20T06:56:15.522Z,1.37
2023-01-20T06:59:56.740Z,1.39
2023-01-20T07:03:21.095Z,1.43
2023-01-20T07:06:44.933Z,1.47
2023-01-20T07:10:09.901Z,1.52
2023-01-20T07:13:33.816Z,1.54
2023-01-20T07:16:57.711Z,1.54
2023-01-20T07:20:21.510Z,1.58
2023-01-20T07:23:45.782Z,1.60
2023-01-20T07:27:09.607Z,1.63
2023-01-20T07:30:33.682Z,1.62
2023-01-20T07:33:58.659Z,1.61
2023-01-20T07:37:22.550Z,1.61
2023-01-20T07:40:46.566Z,1.60
2023-01-20T07:44:10.858Z,1.61
2023-01-20T07:47:34.643Z,1.60
2023-01-20T07:51:03.125Z,1.63
2023-01-20T07:54:27.042Z,1.62
2023-01-20T07:57:50.887Z,1.51
2023-01-20T08:01:20.617Z,1.41
2023-01-20T08:04:44.682Z,1.34
2023-01-20T08:08:08.480Z,1.29
2023-01-20T08:11:33.207Z,1.27
2023-01-20T08:14:57.181Z,1.24
2023-01-20T08:18:21.045Z,1.20
2023-01-20T08:21:44.891Z,1.16
2023-01-20T08:25:09.382Z,1.11
2023-01-20T08:28:37.257Z,1.10
2023-01-20T08:32:02.149Z,1.09
2023-01-20T08:35:26.411Z,1.06
2023-01-20T08:38:50.532Z,1.07
2023-01-20T08:42:16.872Z,1.06
2023-01-20T08:45:43.718Z,1.06
2023-01-20T08:49:18.501Z,1.07
2023-01-20T08:52:43.542Z,1.05
2023-01-20T08:56:07.960Z,1.07
2023-01-20T08:59:31.835Z,1.06
2023-01-20T09:02:55.788Z,1.05
2023-01-20T09:06:21.745Z,1.10
2023-01-20T09:09:45.563Z,1.15
2023-01-20T09:13:09.499Z,1.19
2023-01-20T09:16:33.684Z,1.23
2023-01-20T09:19:57.654Z,1.24
2023-01-20T09:23:21.448Z,1.25
2023-01-20T09:26:45.633Z,1.25
2023-01-20T09:30:10.542Z,1.24
2023-01-20T09:33:38.238Z,1.23
2023-01-20T09:37:23.326Z,1.23
2023-01-20T09:41:23.780Z,1.20
2023-01-20T09:44:47.925Z,1.18
2023-01-20T09:48:39.868Z,1.18
2023-01-20T09:52:32.290Z,1.21
2023-01-20T09:55:59.597Z,1.22
2023-01-20T09:59:33.359Z,1.24
2023-01-20T10:03:06.758Z,1.23
2023-01-20T10:07:06.765Z,1.19
2023-01-20T10:10:39.234Z,1.10
2023-01-20T10:14:15.283Z,1.10
2023-01-20T10:17:50.693Z,1.12
2023-01-20T10:21:35.125Z,1.14
2023-01-20T10:25:06.722Z,1.11
2023-01-20T10:28:36.220Z,1.08
2023-01-20T10:32:01.904Z,1.07
2023-01-20T10:35:29.672Z,1.14
2023-01-20T10:39:11.428Z,1.18
2023-01-20T10:42:35.403Z,1.15
2023-01-20T10:46:40.610Z,1.13
2023-01-20T10:50:12.807Z,1.10
2023-01-20T10:53:54.586Z,1.07
2023-01-20T10:57:18.463Z,1.05
2023-01-20T11:00:43.756Z,1.02
2023-01-20T11:04:20.433Z,0.99
2023-01-20T11:07:45.577Z,1.01
2023-01-20T11:11:14.086Z,1.04
2023-01-20T11:14:38.338Z,1.01
2023-01-20T11:18:17.322Z,1.01
2023-01-20T11:21:41.603Z,1.02
2023-01-20T11:25:06.877Z,0.98
2023-01-20T11:28:48.300Z,0.92
2023-01-20T11:32:44.624Z,0.89
2023-01-20T11:36:19.984Z,0.84
2023-01-20T11:40:02.224Z,0.81
2023-01-20T11:43:40.762Z,0.82
2023-01-20T11:47:28.202Z,0.84
2023-01-20T11:50:58.659Z,0.85
2023-01-20T11:54:28.487Z,0.84
2023-01-20T11:58:02.407Z,0.83
2023-01-20T12:01:32.233Z,0.87
2023-01-20T12:05:23.111Z,0.91
2023-01-20T12:08:52.570Z,0.92
2023-01-20T12:12:33.676Z,0.93
2023-01-20T12:16:02.230Z,0.91
2023-01-20T12:19:40.479Z,0.90
2023-01-20T12:23:39.185Z,0.90
2023-01-20T12:27:03.149Z,0.87
2023-01-20T12:30:43.502Z,0.87
2023-01-20T12:34:13.440Z,0.87
2023-01-20T12:37:48.353Z,0.86
2023-01-20T12:41:23.481Z,0.81
2023-01-20T12:45:00.890Z,0.80
2023-01-20T12:48:38.480Z,0.77
2023-01-20T12:52:17.077Z,0.77
2023-01-20T12:56:00.369Z,0.75
2023-01-20T12:59:44.952Z,0.73
2023-01-20T13:03:40.543Z,0.73
2023-01-20T13:07:19.693Z,0.74
2023-01-20T13:10:52.500Z,0.75
2023-01-20T13:14:31.095Z,0.76
2023-01-20T13:18:16.743Z,0.78
2023-01-20T13:21:41.905Z,0.78
2023-01-20T13:25:07.363Z,0.78
2023-01-20T13:28:32.340Z,0.80
2023-01-20T13:31:56.754Z,0.81
2023-01-20T13:35:45.003Z,0.79
2023-01-20T13:39:31.546Z,0.76
2023-01-20T13:42:55.283Z,0.74
2023-01-20T13:46:19.078Z,0.73
2023-01-20T13:49:52.571Z,0.72
2023-01-20T13:53:22.579Z,0.71
2023-01-20T13:57:20.424Z,0.68
2023-01-20T14:00:45.001Z,0.66
2023-01-20T14:04:16.976Z,0.65
2023-01-20T14:07:45.258Z,0.65
2023-01-20T14:11:17.678Z,0.62
2023-01-20T14:14:44.926Z,0.62
2023-01-20T14:18:16.141Z,0.61
2023-01-20T14:21:42.333Z,0.62
2023-01-20T14:25:21.448Z,0.61
2023-01-20T14:28:51.381Z,0.61
2023-01-20T14:32:38.969Z,0.59
2023-01-20T14:36:39.918Z,0.58
2023-01-20T14:40:43.784Z,0.59
2023-01-20T14:44:44.882Z,0.58
2023-01-20T14:48:42.785Z,0.57
2023-01-20T14:52:45.805Z,0.58
2023-01-20T14:56:43.792Z,0.60
2023-01-20T15:00:41.771Z,0.60
2023-01-20T15:04:39.810Z,0.59
2023-01-20T15:08:39.766Z,0.57
2023-01-20T15:13:06.729Z,0.59
2023-01-20T15:17:05.772Z,0.59
2023-01-20T15:21:16.859Z,0.62
2023-01-20T15:25:26.833Z,0.65
2023-01-20T15:29:35.793Z,0.67
2023-01-20T15:33:33.784Z,0.68
2023-01-20T15:37:33.769Z,0.66
2023-01-20T15:41:31.709Z,0.67
2023-01-20T15:45:31.706Z,0.66
2023-01-20T15:49:29.736Z,0.66
2023-01-20T15:53:27.737Z,0.67
2023-01-20T15:57:27.699Z,0.66
2023-01-20T16:01:30.729Z,0.65
2023-01-20T16:05:28.691Z,0.66
2023-01-20T16:09:43.663Z,0.68
2023-01-20T16:13:41.670Z,0.68
2023-01-20T16:17:45.682Z,0.69
2023-01-20T16:21:45.474Z,0.70
2023-01-20T16:25:43.642Z,0.71
2023-01-20T16:29:48.832Z,0.71
2023-01-20T16:33:46.670Z,0.74
2023-01-20T16:37:44.640Z,0.76
2023-01-20T16:41:43.641Z,0.75
2023-01-20T16:45:43.696Z,0.75
2023-01-20T16:49:41.612Z,0.75
2023-01-20T16:53:39.691Z,0.75
2023-01-20T16:57:37.626Z,0.75
2023-01-20T17:01:36.690Z,0.74
2023-01-20T17:05:34.592Z,0.73
2023-01-20T17:09:32.648Z,0.72
2023-01-20T17:13:31.594Z,0.72
2023-01-20T17:17:30.651Z,0.73
2023-01-20T17:21:28.592Z,0.74
2023-01-20T17:25:29.682Z,0.72
2023-01-20T17:29:28.537Z,0.71
2023-01-20T17:33:26.661Z,0.70
2023-01-20T17:37:24.539Z,0.69
2023-01-20T17:41:22.565Z,0.70
2023-01-20T17:45:20.561Z,0.70
2023-01-20T17:49:18.679Z,0.69
2023-01-20T17:53:18.540Z,0.70
2023-01-20T17:57:16.541Z,0.70
2023-01-20T18:01:30.539Z,0.73
2023-01-20T18:05:28.603Z,0.72
2023-01-20T18:09:28.497Z,0.70
2023-01-20T18:13:26.526Z,0.69
2023-01-20T18:17:24.606Z,0.68
2023-01-20T18:21:36.463Z,0.68
2023-01-20T18:25:34.555Z,0.68
2023-01-20T18:29:32.500Z,0.67
2023-01-20T18:33:30.544Z,0.65
2023-01-20T18:37:28.624Z,0.64
2023-01-20T18:41:28.446Z,0.61
2023-01-20T18:45:26.507Z,0.60
2023-01-20T18:49:29.428Z,0.61
2023-01-20T18:53:29.879Z,0.63
2023-01-20T18:57:28.774Z,0.59
2023-01-20T19:01:29.523Z,0.58
2023-01-20T19:05:27.423Z,0.58
2023-01-20T19:09:26.503Z,0.59
2023-01-20T19:13:26.517Z,0.59
2023-01-20T19:17:24.431Z,0.60
2023-01-20T19:21:24.423Z,0.58
2023-01-20T19:25:23.459Z,0.60
2023-01-20T19:29:27.045Z,0.59
2023-01-20T19:33:26.452Z,0.59
2023-01-20T19:37:24.430Z,0.59
2023-01-20T19:41:24.416Z,0.60
2023-01-20T19:45:22.427Z,0.59
2023-01-20T19:49:22.763Z,0.60
2023-01-20T19:53:20.436Z,0.63
2023-01-20T19:57:18.420Z,0.64
2023-01-20T20:01:31.327Z,0.65
2023-01-20T20:05:29.728Z,0.66
2023-01-20T20:09:32.344Z,0.65
2023-01-20T20:13:31.359Z,0.64
2023-01-20T20:17:32.319Z,0.68
2023-01-20T20:21:33.430Z,0.67
2023-01-20T20:25:31.392Z,0.66
2023-01-20T20:29:31.323Z,0.64
2023-01-20T20:33:29.423Z,0.62
2023-01-20T20:37:27.379Z,0.59
2023-01-20T20:41:26.381Z,0.58
2023-01-20T20:45:26.406Z,0.61
2023-01-20T20:49:29.295Z,0.60
2023-01-20T20:53:32.418Z,0.61
2023-01-20T20:57:23.617Z,0.57
2023-01-20T21:01:22.458Z,0.56
2023-01-20T21:05:21.331Z,0.54
2023-01-20T21:09:19.276Z,0.54
2023-01-20T21:13:17.285Z,0.54
2023-01-20T21:17:16.284Z,0.52
2023-01-20T21:21:18.235Z,0.49
2023-01-20T21:25:16.438Z,0.47
2023-01-20T21:29:07.567Z,0.45
2023-01-20T21:33:05.235Z,0.45
2023-01-20T21:37:03.313Z,0.47
2023-01-20T21:41:10.302Z,0.47
2023-01-20T21:45:08.192Z,0.49
2023-01-20T21:49:38.238Z,0.49
2023-01-20T21:53:36.207Z,0.52
2023-01-20T21:57:41.172Z,0.55
2023-01-20T22:01:41.302Z,0.53
2023-01-20T22:05:39.168Z,0.49
2023-01-20T22:09:37.152Z,0.48
2023-01-20T22:13:36.185Z,0.51
2023-01-20T22:17:34.125Z,0.54
2023-01-20T22:21:32.272Z,0.52
2023-01-20T22:25:30.259Z,0.53
2023-01-20T22:29:28.206Z,0.48
2023-01-20T22:33:28.128Z,0.51
2023-01-20T22:37:26.143Z,0.52
2023-01-20T22:41:24.117Z,0.43
2023-01-20T22:45:22.135Z,0.42
2023-01-20T22:49:20.118Z,0.40
2023-01-20T22:53:18.260Z,0.41
2023-01-20T22:57:16.101Z,0.42
2023-01-20T23:01:14.198Z,0.42
2023-01-20T23:05:12.085Z,0.40
2023-01-20T23:09:10.157Z,0.43
2023-01-20T23:13:08.092Z,0.44
2023-01-20T23:17:07.063Z,0.44
2023-01-20T23:21:06.161Z,0.45
2023-01-20T23:25:05.165Z,0.42
2023-01-20T23:29:03.135Z,0.41
2023-01-20T23:33:01.151Z,0.43
2023-01-20T23:37:00.097Z,0.44
2023-01-20T23:40:58.201Z,0.43
2023-01-20T23:44:56.026Z,0.43
2023-01-20T23:48:54.157Z,0.42
2023-01-20T23:52:52.042Z,0.39
2023-01-20T23:56:50.728Z,0.38
